Time;durP1;ratioP1;P1;durP2;ratioP2;P2;SDS_P1;SDS_P2;PMS_P1;PMS_P2;Temp;Humidity;BMP_temperature;BMP_pressure;BME280_temperature;BME280_humidity;BME280_pressure;Samples;Min_cycle;Max_cycle;Signal;HPM_P1;HPM_P2
2022/08/26 00:01:25;;;;;;;9.02;4.97;;;;;;;20.29;46.82;101387.53;5006011;28;20064;-79
2022/08/26 00:03:51;;;;;;;4.80;4.28;;;;;;;20.29;47.16;101387.53;4999179;28;20062;-79
2022/08/26 00:06:16;;;;;;;6.68;4.57;;;;;;;20.25;47.41;101386.06;5003471;28;20039;-79
2022/08/26 00:08:42;;;;;;;5.10;4.22;;;;;;;20.21;47.37;101395.22;5003949;28;20049;-78
2022/08/26 00:11:08;;;;;;;5.53;4.93;;;;;;;20.10;47.36;101391.53;4987785;28;20093;-77
2022/08/26 00:13:34;;;;;;;9.10;5.80;;;;;;;20.10;47.53;101388.88;5000355;28;20074;-76
2022/08/26 00:16:01;;;;;;;11.18;5.15;;;;;;;20.00;47.95;101390.47;5000557;28;20059;-77
2022/08/26 00:18:26;;;;;;;7.20;4.72;;;;;;;20.05;47.50;101390.97;5004699;28;20056;-78
2022/08/26 00:20:52;;;;;;;7.43;4.50;;;;;;;20.05;47.50;101390.97;4984957;28;20031;-76
2022/08/26 00:23:19;;;;;;;7.10;4.90;;;;;;;20.14;47.46;101386.81;4988028;28;20048;-77
2022/08/26 00:25:44;;;;;;;12.48;5.18;;;;;;;20.22;46.95;101396.94;4986929;28;20109;-77
2022/08/26 00:28:10;;;;;;;9.90;5.30;;;;;;;20.23;47.27;101388.81;4988181;28;20604;-77
2022/08/26 00:30:35;;;;;;;8.45;4.72;;;;;;;20.10;47.57;101393.31;5001422;28;20033;-77
2022/08/26 00:33:01;;;;;;;6.63;4.03;;;;;;;20.21;47.02;101396.06;4992442;28;20495;-78
2022/08/26 00:35:28;;;;;;;6.82;4.38;;;;;;;20.19;47.45;101389.97;4991432;28;20034;-77
2022/08/26 00:37:54;;;;;;;7.72;5.22;;;;;;;20.12;47.27;101392.22;4984851;28;20049;-77
2022/08/26 00:40:33;;;;;;;7.05;4.50;;;;;;;20.13;47.41;101379.84;5009466;28;20469;-77
2022/08/26 00:42:59;;;;;;;6.35;5.05;;;;;;;20.11;47.63;101387.06;5000869;28;20042;-76
2022/08/26 00:45:24;;;;;;;8.60;4.50;;;;;;;20.13;47.67;101383.31;4995597;28;20080;-78
2022/08/26 00:47:58;;;;;;;9.45;5.50;;;;;;;20.09;47.65;101379.19;5002146;28;20574;-80
2022/08/26 00:50:28;;;;;;;8.25;4.65;;;;;;;20.01;48.01;101373.59;5002641;28;20112;-78
2022/08/26 00:52:56;;;;;;;7.82;4.93;;;;;;;20.06;47.63;101376.78;5006757;28;20045;-77
2022/08/26 00:55:37;;;;;;;10.65;5.95;;;;;;;20.08;47.51;101374.00;4993363;28;20037;-79
2022/08/26 00:58:03;;;;;;;7.00;5.17;;;;;;;20.05;47.54;101372.41;4990051;28;20034;-77
2022/08/26 01:00:31;;;;;;;7.30;4.32;;;;;;;20.08;47.78;101369.56;5004221;28;20041;-77
2022/08/26 01:03:00;;;;;;;11.77;4.82;;;;;;;19.97;47.89;101369.50;5002437;28;20042;-77
2022/08/26 01:05:27;;;;;;;10.65;5.05;;;;;;;19.98;47.97;101373.81;5005057;28;20121;-77
2022/08/26 01:07:52;;;;;;;5.70;5.05;;;;;;;19.96;48.07;101364.28;4989553;28;20034;-76
2022/08/26 01:10:21;;;;;;;6.97;5.47;;;;;;;19.92;48.14;101367.13;5001267;28;20045;-78
2022/08/26 01:12:51;;;;;;;10.73;5.93;;;;;;;19.88;48.05;101375.44;5006430;28;20038;-77
2022/08/26 01:15:21;;;;;;;7.00;5.30;;;;;;;19.83;48.09;101372.28;5007399;28;20488;-78
2022/08/26 01:17:48;;;;;;;11.87;5.57;;;;;;;19.76;48.50;101368.38;5000699;28;20038;-77
2022/08/26 01:20:35;;;;;;;6.97;6.28;;;;;;;19.72;48.44;101370.38;5002078;28;20328;-76
2022/08/26 01:23:03;;;;;;;12.52;5.72;;;;;;;19.68;48.53;101372.41;5007489;28;20049;-77
2022/08/26 01:25:32;;;;;;;9.07;5.70;;;;;;;19.63;48.98;101371.88;5017025;28;20041;-80
2022/08/26 01:28:00;;;;;;;9.95;5.07;;;;;;;19.62;49.12;101372.00;5021843;28;20175;-77
2022/08/26 01:30:28;;;;;;;7.22;5.35;;;;;;;19.61;49.12;101367.63;5005634;28;20038;-78
2022/08/26 01:32:59;;;;;;;9.90;5.65;;;;;;;19.49;49.31;101377.28;4996389;28;20444;-77
2022/08/26 01:35:26;;;;;;;13.23;5.63;;;;;;;19.52;49.12;101371.75;4990549;28;20034;-77
2022/08/26 01:37:53;;;;;;;8.68;6.05;;;;;;;19.46;49.27;101374.84;4987455;28;20030;-77
2022/08/26 01:40:28;;;;;;;9.27;5.90;;;;;;;19.44;49.25;101374.13;5001657;28;20108;-77
2022/08/26 01:42:54;;;;;;;14.25;6.28;;;;;;;19.32;49.89;101374.94;5001918;28;20064;-78
2022/08/26 01:45:27;;;;;;;14.27;6.70;;;;;;;19.22;50.25;101378.25;5009732;28;20052;-77
2022/08/26 01:47:55;;;;;;;12.15;6.28;;;;;;;19.20;50.34;101377.50;4992621;28;20257;-80
2022/08/26 01:50:29;;;;;;;10.85;6.95;;;;;;;19.21;50.27;101373.91;4993245;28;20450;-78
2022/08/26 01:52:56;;;;;;;7.63;5.72;;;;;;;19.23;50.06;101372.00;4997222;28;20533;-79
2022/08/26 01:55:23;;;;;;;9.18;6.20;;;;;;;19.23;49.99;101376.44;5009964;28;20932;-78
2022/08/26 01:57:53;;;;;;;10.75;6.53;;;;;;;19.17;50.31;101375.06;5004140;28;20034;-80
2022/08/26 02:00:18;;;;;;;7.72;4.82;;;;;;;19.23;49.84;101379.09;5026894;28;20033;-78
2022/08/26 02:02:48;;;;;;;11.77;5.75;;;;;;;19.12;50.21;101379.81;5004840;28;20029;-79
2022/08/26 02:05:18;;;;;;;10.25;6.38;;;;;;;19.00;50.86;101407.16;5014329;28;20090;-79
2022/08/26 02:07:45;;;;;;;17.88;7.13;;;;;;;18.89;50.72;101399.94;4999485;28;20173;-78
2022/08/26 02:10:11;;;;;;;10.15;6.57;;;;;;;18.95;50.53;101388.94;5010907;28;20203;-81
2022/08/26 02:12:38;;;;;;;11.13;6.20;;;;;;;19.01;50.42;101392.94;4991815;28;20046;-80
2022/08/26 02:15:07;;;;;;;5.82;5.25;;;;;;;19.05;50.39;101389.16;4980338;28;20064;-78
2022/08/26 02:17:37;;;;;;;11.32;6.28;;;;;;;18.90;50.42;101391.06;5004517;28;20041;-81
2022/08/26 02:20:03;;;;;;;10.27;6.97;;;;;;;18.92;50.28;101390.94;5009666;28;20052;-79
2022/08/26 02:22:29;;;;;;;9.80;5.78;;;;;;;18.95;50.25;101403.97;5006446;28;23083;-80
2022/08/26 02:24:57;;;;;;;8.32;6.43;;;;;;;18.77;51.00;101390.16;4990116;28;20038;-81
2022/08/26 02:27:29;;;;;;;7.82;5.93;;;;;;;18.76;51.10;101402.50;4989178;28;20129;-80
2022/08/26 02:30:05;;;;;;;13.30;6.00;;;;;;;18.64;51.10;101395.41;4996828;28;20045;-81
2022/08/26 02:32:31;;;;;;;12.75;6.15;;;;;;;18.52;51.18;101393.53;5001823;28;20548;-80
2022/08/26 02:34:56;;;;;;;10.40;5.47;;;;;;;18.51;51.16;101402.44;4992663;28;20041;-81
2022/08/26 02:37:22;;;;;;;9.10;5.65;;;;;;;18.57;51.14;101402.06;5007750;28;20060;-79
2022/08/26 02:39:47;;;;;;;9.70;6.28;;;;;;;18.44;51.37;101389.59;5024248;28;20687;-80
2022/08/26 02:42:13;;;;;;;7.20;5.35;;;;;;;18.44;51.42;101396.69;4989563;28;20121;-79
2022/08/26 02:44:38;;;;;;;11.25;5.90;;;;;;;18.48;51.57;101401.69;5000330;28;20034;-78
2022/08/26 02:47:05;;;;;;;12.20;6.88;;;;;;;18.46;51.02;101392.16;4999708;28;20113;-80
2022/08/26 02:49:31;;;;;;;12.85;7.57;;;;;;;18.31;51.66;101382.56;5006051;28;20034;-80
2022/08/26 02:52:00;;;;;;;9.23;7.00;;;;;;;18.21;52.21;101382.34;4989910;28;20120;-78
2022/08/26 02:54:25;;;;;;;11.75;6.65;;;;;;;18.20;52.50;101391.19;4990347;28;20041;-82
2022/08/26 02:56:51;;;;;;;9.63;5.80;;;;;;;18.30;51.85;101389.66;5006794;28;20322;-81
2022/08/26 02:59:16;;;;;;;7.32;6.05;;;;;;;18.18;51.91;101388.59;4987577;28;20061;-78
2022/08/26 03:01:43;;;;;;;8.10;5.43;;;;;;;18.18;52.09;101388.59;5006908;28;20034;-77
2022/08/26 03:04:10;;;;;;;7.65;5.85;;;;;;;18.16;51.78;101381.72;4989792;28;20033;-78
2022/08/26 03:06:36;;;;;;;11.13;6.80;;;;;;;18.02;52.13;101372.03;4991204;28;20038;-77
2022/08/26 03:09:03;;;;;;;11.63;6.35;;;;;;;18.04;52.20;101384.22;4997723;28;20099;-80
2022/08/26 03:11:29;;;;;;;8.52;5.70;;;;;;;18.13;52.15;101379.28;4993144;28;20034;-80
2022/08/26 03:13:55;;;;;;;8.90;6.00;;;;;;;18.05;51.81;101372.69;4996423;28;20696;-78
2022/08/26 03:16:21;;;;;;;9.93;6.20;;;;;;;17.98;51.91;101373.16;5002521;28;20053;-78
2022/08/26 03:18:46;;;;;;;8.80;6.15;;;;;;;17.99;51.96;101369.59;5002555;28;20072;-78
2022/08/26 03:21:14;;;;;;;6.00;5.40;;;;;;;18.00;52.01;101369.47;5017759;28;20033;-79
2022/08/26 03:23:42;;;;;;;7.07;5.88;;;;;;;18.03;51.98;101374.59;4983595;28;20554;-78
2022/08/26 03:26:11;;;;;;;9.35;6.65;;;;;;;17.91;52.06;101371.88;5002699;28;20078;-77
2022/08/26 03:31:28;;;;;;;9.93;6.63;;;;;;;17.82;52.10;101368.84;4962080;28;20046;-79
2022/08/26 03:33:54;;;;;;;8.70;6.43;;;;;;;17.74;52.45;101367.63;5017864;28;20229;-77
2022/08/26 03:36:20;;;;;;;10.45;6.95;;;;;;;17.75;52.42;101374.63;4991506;28;20026;-79
2022/08/26 03:38:45;;;;;;;11.32;7.60;;;;;;;17.60;52.71;101368.50;5007305;28;20503;-78
2022/08/26 03:41:11;;;;;;;9.98;6.40;;;;;;;17.56;52.99;101372.28;4986686;28;20040;-77
2022/08/26 03:43:38;;;;;;;10.35;6.72;;;;;;;17.60;52.40;101372.00;4986966;28;20057;-80
2022/08/26 03:46:09;;;;;;;10.68;6.72;;;;;;;17.71;52.21;101367.84;5003104;28;20527;-79
2022/08/26 03:48:34;;;;;;;13.00;7.53;;;;;;;17.72;52.01;101369.53;5000914;28;20034;-79
2022/08/26 03:51:01;;;;;;;11.52;7.88;;;;;;;17.68;52.33;101368.03;4987763;28;20487;-79
2022/08/26 03:53:27;;;;;;;12.55;7.97;;;;;;;17.58;52.26;101368.63;4997788;28;20046;-79
2022/08/26 03:55:53;;;;;;;13.18;8.13;;;;;;;17.48;52.54;101367.47;5002166;28;20041;-78
2022/08/26 03:58:19;;;;;;;11.80;7.40;;;;;;;17.52;52.48;101374.28;5003544;28;20029;-79
2022/08/26 04:00:45;;;;;;;8.68;6.82;;;;;;;17.44;52.51;101366.75;5001837;28;20380;-78
2022/08/26 04:03:10;;;;;;;7.95;6.70;;;;;;;17.51;52.70;101364.63;4987027;28;20037;-79
2022/08/26 04:05:36;;;;;;;9.98;6.85;;;;;;;17.50;52.73;101364.75;4996409;28;20131;-78
2022/08/26 04:08:02;;;;;;;11.07;7.40;;;;;;;17.51;52.51;101366.44;5004016;28;20044;-77
2022/08/26 04:10:27;;;;;;;11.20;7.18;;;;;;;17.39;53.10;101368.84;4990811;28;20025;-78
2022/08/26 04:12:53;;;;;;;8.88;6.63;;;;;;;17.49;52.51;101369.16;4983258;28;20092;-79
2022/08/26 04:15:20;;;;;;;11.40;7.88;;;;;;;17.48;52.85;101362.19;4983053;28;20065;-77
2022/08/26 04:17:46;;;;;;;13.73;7.75;;;;;;;17.41;53.25;101363.47;4974959;28;20709;-78
2022/08/26 04:20:12;;;;;;;10.30;7.40;;;;;;;17.39;52.85;101357.44;4986128;28;20054;-79
2022/08/26 04:22:41;;;;;;;8.23;7.00;;;;;;;17.29;53.43;101357.16;5002559;28;20071;-79
2022/08/26 04:25:07;;;;;;;11.40;7.22;;;;;;;17.39;53.57;101366.19;4999685;28;20045;-76
2022/08/26 04:27:33;;;;;;;16.75;8.38;;;;;;;17.31;53.54;101360.53;4986465;28;20042;-80
2022/08/26 04:29:58;;;;;;;11.43;7.65;;;;;;;17.30;53.63;101358.00;5006436;28;20049;-78
2022/08/26 04:32:24;;;;;;;15.95;7.85;;;;;;;17.30;53.87;101358.00;4983189;28;20285;-78
2022/08/26 04:34:49;;;;;;;16.92;8.30;;;;;;;17.32;53.73;101345.56;5011774;28;20480;-79
2022/08/26 04:37:15;;;;;;;14.32;6.80;;;;;;;17.39;53.66;101352.16;4993479;28;20073;-79
2022/08/26 04:39:41;;;;;;;9.65;7.50;;;;;;;17.56;53.19;101353.75;4987188;28;20061;-77
2022/08/26 04:42:06;;;;;;;13.75;7.25;;;;;;;17.54;53.68;101345.94;4975892;28;20042;-78
2022/08/26 04:44:35;;;;;;;13.73;8.88;;;;;;;17.60;52.94;101348.22;4991914;28;20030;-78
2022/08/26 04:47:00;;;;;;;14.68;9.93;;;;;;;17.59;53.60;101354.44;5001716;28;20070;-80
2022/08/26 04:49:26;;;;;;;13.15;8.00;;;;;;;17.71;53.01;101357.25;4993931;28;20064;-79
2022/08/26 04:51:52;;;;;;;13.85;8.00;;;;;;;17.71;52.64;101354.63;4985815;28;20494;-78
2022/08/26 04:54:18;;;;;;;14.40;7.43;;;;;;;17.68;53.08;101353.03;4988060;28;20060;-77
2022/08/26 04:56:46;;;;;;;12.93;9.07;;;;;;;17.70;52.78;101355.56;4970516;28;20092;-79
2022/08/26 04:59:14;;;;;;;14.57;7.95;;;;;;;17.57;53.17;101360.78;5003053;28;20040;-78
2022/08/26 05:01:50;;;;;;;11.88;9.30;;;;;;;17.43;53.41;101353.66;5002965;28;20100;-77
2022/08/26 05:04:17;;;;;;;10.45;7.90;;;;;;;17.46;53.50;101358.75;5003934;28;20717;-79
2022/08/26 05:06:42;;;;;;;10.05;7.28;;;;;;;17.61;53.12;101360.47;4991576;28;20034;-78
2022/08/26 05:09:08;;;;;;;8.90;6.78;;;;;;;17.76;53.16;101357.81;4988908;28;20091;-79
2022/08/26 05:11:34;;;;;;;17.80;8.48;;;;;;;17.93;52.64;101368.16;4989353;28;20036;-79
2022/08/26 05:14:00;;;;;;;8.88;6.97;;;;;;;17.99;52.71;101362.50;5002840;28;20041;-80
2022/08/26 05:16:26;;;;;;;9.88;7.78;;;;;;;18.04;52.62;101363.03;4996887;28;20895;-79
2022/08/26 05:18:53;;;;;;;10.75;7.88;;;;;;;18.18;52.42;101367.44;5011374;28;20052;-79
2022/08/26 05:21:22;;;;;;;13.07;7.65;;;;;;;18.27;52.08;101371.31;5008129;28;20128;-78
2022/08/26 05:23:50;;;;;;;13.10;8.00;;;;;;;18.55;51.67;101378.31;5009655;28;20193;-81
2022/08/26 05:26:17;;;;;;;12.15;8.10;;;;;;;18.84;51.06;101389.63;4993559;28;20034;-78
2022/08/26 05:28:43;;;;;;;17.08;8.77;;;;;;;19.45;49.71;101381.09;5005223;28;20079;-80
2022/08/26 05:31:14;;;;;;;13.15;8.07;;;;;;;20.29;47.68;101377.78;4999895;28;20065;-79
2022/08/26 05:33:39;;;;;;;16.52;8.25;;;;;;;20.63;46.69;101379.72;5009788;28;21034;-80
2022/08/26 05:36:11;;;;;;;15.57;8.52;;;;;;;21.50;45.12;101381.03;4994697;28;20054;-78
2022/08/26 05:38:37;;;;;;;13.70;7.53;;;;;;;23.16;42.64;101379.91;5013879;28;20076;-78
2022/08/26 05:41:03;;;;;;;10.77;7.53;;;;;;;24.25;37.97;101375.69;5022823;28;20115;-77
2022/08/26 05:43:28;;;;;;;11.73;7.90;;;;;;;24.55;36.21;101385.44;4994570;28;20052;-78
2022/08/26 05:45:55;;;;;;;17.02;9.00;;;;;;;24.81;36.47;101379.50;4991298;28;20048;-80
2022/08/26 05:48:20;;;;;;;19.75;10.20;;;;;;;25.21;34.96;101379.28;4992796;28;20041;-79
2022/08/26 05:50:48;;;;;;;11.93;7.72;;;;;;;25.47;35.25;101374.13;5005670;28;20038;-79
2022/08/26 05:53:17;;;;;;;10.88;8.35;;;;;;;25.87;33.57;101374.78;5001272;28;20061;-79
2022/08/26 05:55:46;;;;;;;11.23;7.78;;;;;;;26.34;33.37;101371.09;5007917;28;20045;-78
2022/08/26 05:58:12;;;;;;;8.23;6.60;;;;;;;26.65;33.70;101380.44;4987163;28;20137;-79
2022/08/26 06:00:38;;;;;;;9.90;7.30;;;;;;;27.23;31.57;101367.44;5004655;28;20072;-79
2022/08/26 06:03:04;;;;;;;9.98;8.05;;;;;;;27.41;31.12;101370.03;4987574;28;20048;-79
2022/08/26 06:05:30;;;;;;;9.30;7.05;;;;;;;27.57;32.51;101367.41;4990695;28;20034;-78
2022/08/26 06:08:12;;;;;;;11.32;7.63;;;;;;;28.05;30.60;101365.03;5003356;28;20046;-78
2022/08/26 06:10:43;;;;;;;7.82;6.97;;;;;;;28.24;30.12;101362.09;4989014;28;20030;-79
2022/08/26 06:13:09;;;;;;;11.05;7.97;;;;;;;28.56;30.00;101365.78;4989335;28;20038;-77
2022/08/26 06:15:41;;;;;;;13.07;6.85;;;;;;;29.20;29.79;101359.69;5006436;28;20029;-80
2022/08/26 06:18:07;;;;;;;10.77;7.53;;;;;;;29.73;27.72;101368.91;4980444;28;20496;-79
2022/08/26 06:20:32;;;;;;;6.95;5.68;;;;;;;31.06;27.10;101365.81;5012838;28;20022;-79
2022/08/26 06:25:43;;;;;;;10.85;6.75;;;;;;;31.65;25.17;101369.50;5017580;28;20103;-79
2022/08/26 06:28:08;;;;;;;8.90;5.70;;;;;;;32.26;24.38;101372.69;4989176;28;20083;-79
2022/08/26 06:30:39;;;;;;;11.30;6.53;;;;;;;32.80;24.63;101373.97;4988137;28;20045;-79
2022/08/26 06:33:06;;;;;;;7.68;5.68;;;;;;;33.44;23.39;101370.22;4970691;28;20124;-77
2022/08/26 06:35:38;;;;;;;9.40;6.57;;;;;;;33.78;22.79;101376.59;4997776;28;20051;-79
2022/08/26 06:38:05;;;;;;;10.27;6.85;;;;;;;34.24;21.58;101371.28;5004838;28;20056;-77
2022/08/26 06:40:30;;;;;;;9.80;6.32;;;;;;;34.68;21.41;101383.38;5003322;28;20045;-78
2022/08/26 06:42:56;;;;;;;14.80;7.80;;;;;;;33.56;23.02;101384.00;4986626;28;20519;-78
2022/08/26 06:45:21;;;;;;;11.65;6.82;;;;;;;33.96;21.46;101378.72;4986011;28;20119;-78
2022/08/26 06:47:47;;;;;;;15.77;6.75;;;;;;;33.48;23.12;101387.72;4990486;28;20680;-79
2022/08/26 06:50:12;;;;;;;10.93;7.22;;;;;;;33.58;22.57;101393.59;4989396;28;20646;-78
2022/08/26 06:52:40;;;;;;;10.43;6.50;;;;;;;34.18;21.97;101391.09;5001798;28;20076;-77
2022/08/26 06:55:07;;;;;;;7.82;6.57;;;;;;;33.69;22.40;101394.88;4991065;28;20757;-81
2022/08/26 06:57:33;;;;;;;15.95;10.27;;;;;;;30.59;28.38;101407.41;4979805;28;20034;-78
2022/08/26 06:59:58;;;;;;;19.63;14.05;;;;;;;27.24;33.84;101409.38;5005048;28;20578;-77
2022/08/26 07:02:24;;;;;;;28.58;16.65;;;;;;;25.16;37.85;101416.31;4990243;28;20042;-80
2022/08/26 07:04:49;;;;;;;25.55;15.45;;;;;;;23.72;41.57;101424.88;4988652;28;20034;-77
2022/08/26 07:07:15;;;;;;;32.10;16.42;;;;;;;22.59;44.25;101422.00;4987392;28;20038;-80
2022/08/26 07:09:40;;;;;;;26.63;15.90;;;;;;;21.95;46.31;101428.06;4991399;28;20646;-76
2022/08/26 07:12:06;;;;;;;33.97;16.95;;;;;;;21.63;47.46;101420.81;4978135;28;20671;-79
2022/08/26 07:14:33;;;;;;;40.03;18.20;;;;;;;21.22;48.90;101424.00;4980505;28;20030;-79
2022/08/26 07:17:00;;;;;;;33.58;17.65;;;;;;;21.40;49.18;101427.03;4989919;28;20117;-79
2022/08/26 07:19:25;;;;;;;31.88;18.33;;;;;;;21.41;50.01;101432.25;4986442;28;20026;-79
2022/08/26 07:21:51;;;;;;;43.95;18.38;;;;;;;21.19;50.05;101419.75;4986833;28;20041;-80
2022/08/26 07:24:16;;;;;;;37.00;17.88;;;;;;;21.03;51.26;101432.53;4987166;28;20013;-79
2022/08/26 07:26:42;;;;;;;30.92;17.70;;;;;;;21.37;50.59;101428.13;4985419;28;20073;-78
2022/08/26 07:29:07;;;;;;;28.65;17.88;;;;;;;21.07;51.60;101431.34;5006387;28;20087;-79
2022/08/26 07:31:34;;;;;;;33.33;18.33;;;;;;;20.67;52.99;101431.66;4981812;28;20061;-80
2022/08/26 07:34:00;;;;;;;31.92;16.60;;;;;;;21.50;51.79;101433.38;4986358;28;20534;-77
2022/08/26 07:36:27;;;;;;;27.05;16.67;;;;;;;21.07;51.87;101441.97;4994380;28;20045;-79
2022/08/26 07:38:53;;;;;;;24.23;16.02;;;;;;;21.22;51.86;101438.16;4986239;28;20527;-76
2022/08/26 07:41:22;;;;;;;33.10;17.38;;;;;;;21.09;51.79;101448.88;4992375;28;20025;-80
2022/08/26 07:43:48;;;;;;;28.33;16.15;;;;;;;21.12;52.23;101443.31;4966805;28;20431;-77
2022/08/26 07:46:18;;;;;;;40.53;17.25;;;;;;;20.75;52.60;101442.53;4979903;28;20040;-82
2022/08/26 07:48:48;;;;;;;40.38;18.15;;;;;;;21.05;51.82;101443.91;5003967;28;20187;-78
2022/08/26 07:51:16;;;;;;;43.00;19.05;;;;;;;21.13;51.45;101449.47;4987135;28;20066;-79
2022/08/26 07:53:44;;;;;;;32.53;17.65;;;;;;;20.87;51.91;101452.28;4985991;28;20096;-77
2022/08/26 07:56:10;;;;;;;34.22;16.70;;;;;;;20.69;52.65;101448.34;4995755;28;20041;-79
2022/08/26 07:58:36;;;;;;;31.58;15.82;;;;;;;20.88;51.69;101459.28;5002721;28;20540;-79
2022/08/26 08:01:02;;;;;;;31.30;17.55;;;;;;;21.03;51.58;101461.78;4982962;28;20026;-79
2022/08/26 08:03:28;;;;;;;40.80;17.77;;;;;;;21.12;51.48;101453.09;4984075;28;20053;-77
2022/08/26 08:05:53;;;;;;;35.00;16.75;;;;;;;21.35;50.85;101462.84;4987809;28;20033;-77
2022/08/26 08:08:20;;;;;;;37.80;17.83;;;;;;;21.41;50.21;101460.66;4987722;28;20059;-76
2022/08/26 08:10:46;;;;;;;30.02;16.27;;;;;;;21.54;49.50;101456.13;5009301;28;20097;-75
2022/08/26 08:13:12;;;;;;;28.40;15.65;;;;;;;21.69;49.59;101452.25;4997842;28;20046;-75
2022/08/26 08:15:38;;;;;;;28.17;15.35;;;;;;;21.90;49.27;101465.69;4988424;28;20057;-76
2022/08/26 08:18:05;;;;;;;31.70;15.25;;;;;;;21.72;49.69;101453.84;4996341;28;20088;-76
2022/08/26 08:20:31;;;;;;;36.42;16.48;;;;;;;21.82;49.50;101453.94;4983265;28;20183;-78
2022/08/26 08:22:57;;;;;;;25.45;14.63;;;;;;;22.09;47.87;101453.59;4981199;28;20616;-76
2022/08/26 08:25:23;;;;;;;33.10;14.75;;;;;;;22.09;47.69;101451.78;4985113;28;20079;-77
2022/08/26 08:27:49;;;;;;;26.33;15.32;;;;;;;22.20;47.23;101452.72;4984366;28;20096;-79
2022/08/26 08:30:18;;;;;;;23.48;13.93;;;;;;;22.36;46.97;101448.72;4984774;28;20128;-77
2022/08/26 08:32:43;;;;;;;24.70;13.77;;;;;;;22.68;46.34;101447.03;4989067;28;20527;-75
2022/08/26 08:35:11;;;;;;;29.42;12.85;;;;;;;24.82;41.90;101448.03;5003680;28;21354;-77
2022/08/26 08:37:37;;;;;;;25.52;11.43;;;;;;;26.86;38.35;101447.13;4999791;28;20501;-75
2022/08/26 08:40:04;;;;;;;21.25;10.48;;;;;;;28.40;34.66;101451.81;4998779;28;20034;-78
2022/08/26 08:42:49;;;;;;;25.98;13.55;;;;;;;27.74;34.61;101456.94;4981353;28;20042;-77
2022/08/26 08:45:49;;;;;;;26.73;11.38;;;;;;;26.29;37.86;101476.06;4979168;28;20026;-77
2022/08/26 08:48:21;;;;;;;24.00;12.35;;;;;;;24.76;40.26;101464.63;4984164;28;20065;-76
2022/08/26 08:50:50;;;;;;;23.33;11.90;;;;;;;24.12;42.58;101466.72;4982681;28;20038;-81
2022/08/26 08:53:33;;;;;;;21.13;12.30;;;;;;;23.68;43.83;101470.59;4989204;28;20034;-77
2022/08/26 08:56:16;;;;;;;27.40;12.57;;;;;;;22.89;45.86;101463.91;5005103;28;20065;-76
2022/08/26 08:58:56;;;;;;;25.88;11.73;;;;;;;22.21;47.38;101481.91;4989748;28;20983;-79
2022/08/26 09:01:34;;;;;;;31.02;13.07;;;;;;;21.52;49.19;101485.47;5006777;28;20053;-75
2022/08/26 09:04:29;;;;;;;25.83;11.80;;;;;;;21.48;49.18;101489.34;4981430;28;20053;-77
2022/08/26 09:06:58;;;;;;;23.27;12.05;;;;;;;21.11;50.53;101488.59;4985641;28;20061;-80
2022/08/26 09:09:52;;;;;;;26.55;12.90;;;;;;;20.89;51.55;101486.72;4996971;28;20048;-78
2022/08/26 09:12:24;;;;;;;30.40;14.27;;;;;;;19.89;53.60;101485.91;4981267;28;20046;-78
2022/08/26 09:14:55;;;;;;;26.88;12.45;;;;;;;20.03;53.05;101476.97;4998539;28;20029;-77
2022/08/26 09:17:39;;;;;;;30.88;12.48;;;;;;;20.44;52.59;101479.34;5001387;28;20049;-77
2022/08/26 09:20:13;;;;;;;29.85;12.68;;;;;;;20.32;52.56;101482.88;4998720;28;20045;-77
2022/08/26 09:22:39;;;;;;;32.35;13.20;;;;;;;20.33;52.85;101492.53;5000181;28;20034;-77
2022/08/26 09:25:08;;;;;;;44.60;15.43;;;;;;;20.49;52.55;101495.78;4983098;28;20121;-77
2022/08/26 09:27:43;;;;;;;34.15;13.57;;;;;;;19.97;53.57;101495.97;5002075;28;20093;-77
2022/08/26 09:30:13;;;;;;;31.17;14.93;;;;;;;19.90;54.00;101499.06;4989836;28;20043;-77
2022/08/26 09:32:39;;;;;;;32.00;13.75;;;;;;;20.02;53.61;101491.19;4980485;28;20708;-75
2022/08/26 09:35:09;;;;;;;30.52;12.80;;;;;;;19.59;54.38;101492.38;4983028;28;20069;-79
2022/08/26 09:37:37;;;;;;;37.50;12.65;;;;;;;19.85;54.24;101495.03;4985877;28;20025;-77
2022/08/26 09:40:23;;;;;;;39.28;13.35;;;;;;;19.84;54.34;101493.34;4999899;28;20041;-76
2022/08/26 09:43:14;;;;;;;41.60;14.27;;;;;;;20.17;54.44;101491.91;4975652;28;20045;-78
2022/08/26 09:45:43;;;;;;;35.13;13.30;;;;;;;20.48;53.88;101493.22;4990538;28;20037;-76
2022/08/26 09:48:08;;;;;;;37.00;12.23;;;;;;;20.62;52.34;101490.44;4975927;28;20285;-76
2022/08/26 09:50:50;;;;;;;33.80;13.20;;;;;;;20.59;52.84;101490.63;5005892;28;20045;-75
2022/08/26 09:53:26;;;;;;;32.33;12.98;;;;;;;20.42;52.67;101499.84;4977756;28;20611;-76
2022/08/26 09:56:11;;;;;;;33.20;13.10;;;;;;;20.42;52.23;101496.34;5003684;28;20045;-76
2022/08/26 09:58:40;;;;;;;28.13;12.68;;;;;;;20.79;51.91;101499.78;4991264;28;20390;-77
2022/08/26 10:01:13;;;;;;;31.30;11.70;;;;;;;20.83;50.87;101505.75;5000073;28;20026;-78
2022/08/26 10:03:39;;;;;;;23.67;10.40;;;;;;;20.70;51.41;101513.75;5002172;28;20057;-77
2022/08/26 10:06:19;;;;;;;24.67;11.95;;;;;;;20.07;52.92;101516.44;5006474;28;20040;-76
2022/08/26 10:08:48;;;;;;;32.38;12.93;;;;;;;20.62;51.65;101505.50;5000087;28;20069;-77
2022/08/26 10:11:37;;;;;;;25.48;10.55;;;;;;;20.69;51.59;101506.75;4987742;28;20026;-75
2022/08/26 10:14:36;;;;;;;25.58;12.20;;;;;;;20.75;51.50;101511.59;5015025;28;20045;-76
2022/08/26 10:17:04;;;;;;;23.42;11.02;;;;;;;20.67;51.49;101508.69;4998399;28;20042;-75
2022/08/26 10:19:40;;;;;;;28.55;11.48;;;;;;;20.76;51.46;101510.66;4992949;28;20558;-77
2022/08/26 10:22:31;;;;;;;30.30;11.40;;;;;;;20.97;51.23;101510.06;4999928;28;20045;-76
2022/08/26 10:25:02;;;;;;;30.45;12.15;;;;;;;20.50;51.70;101510.72;5000807;28;20044;-77
2022/08/26 10:27:42;;;;;;;33.78;14.35;;;;;;;20.33;52.85;101516.44;4984192;28;20046;-75
2022/08/26 10:30:20;;;;;;;27.65;13.85;;;;;;;20.12;53.11;101522.25;5016454;28;20077;-77
2022/08/26 10:33:00;;;;;;;32.28;12.63;;;;;;;19.75;54.21;101524.00;4996553;28;20046;-77
2022/08/26 10:35:26;;;;;;;29.33;11.75;;;;;;;20.01;53.90;101518.66;4995086;28;20120;-75
2022/08/26 10:38:00;;;;;;;28.30;12.48;;;;;;;20.10;53.54;101513.59;4985778;28;20063;-78
2022/08/26 10:41:13;;;;;;;27.08;12.75;;;;;;;20.05;53.64;101515.69;5000472;28;20042;-76
2022/08/26 10:43:41;;;;;;;22.13;11.32;;;;;;;20.19;53.52;101519.19;4945827;28;20046;-75
2022/08/26 10:46:18;;;;;;;22.45;11.02;;;;;;;20.33;52.18;101511.97;4998405;28;20040;-78
2022/08/26 10:48:51;;;;;;;25.85;10.88;;;;;;;20.52;51.89;101515.94;4999454;28;20034;-76
2022/08/26 10:51:22;;;;;;;30.17;12.90;;;;;;;20.09;52.98;101525.13;4992346;28;20122;-75
2022/08/26 10:54:08;;;;;;;35.22;12.77;;;;;;;20.05;53.60;101522.81;4980409;28;20052;-75
2022/08/26 10:56:48;;;;;;;37.15;12.93;;;;;;;19.90;53.59;101527.38;4988205;28;20298;-78
2022/08/26 10:59:34;;;;;;;32.45;11.90;;;;;;;19.79;54.51;101537.88;5002902;28;20041;-78
2022/08/26 11:02:13;;;;;;;22.40;11.10;;;;;;;20.02;53.80;101539.78;4982843;28;20050;-78
2022/08/26 11:05:03;;;;;;;28.98;11.55;;;;;;;19.91;53.64;101526.44;5003179;28;20053;-77
2022/08/26 11:07:38;;;;;;;32.35;12.15;;;;;;;20.03;53.30;101530.03;5002559;28;20100;-78
2022/08/26 11:10:41;;;;;;;28.52;12.30;;;;;;;20.02;53.30;101529.19;5002232;28;20034;-76
2022/08/26 11:13:07;;;;;;;23.70;9.82;;;;;;;20.08;53.38;101528.75;4985227;28;20141;-77
2022/08/26 11:15:39;;;;;;;26.23;9.90;;;;;;;19.77;53.30;101532.69;4981202;28;20172;-77
2022/08/26 11:18:10;;;;;;;26.48;8.73;;;;;;;19.97;53.18;101528.66;4998956;28;20041;-79
2022/08/26 11:20:44;;;;;;;26.65;9.18;;;;;;;20.16;52.49;101530.84;4987449;28;20179;-77
2022/08/26 11:23:21;;;;;;;25.58;8.05;;;;;;;20.51;51.56;101524.88;4999718;28;20126;-77
2022/08/26 11:26:09;;;;;;;30.70;8.70;;;;;;;20.61;51.96;101525.06;5002986;28;20251;-76
2022/08/26 11:28:37;;;;;;;27.38;7.63;;;;;;;20.10;52.33;101525.97;5001919;28;20069;-76
2022/08/26 11:31:08;;;;;;;24.08;7.63;;;;;;;20.12;52.30;101519.59;5010787;28;20194;-78
2022/08/26 11:33:47;;;;;;;27.02;8.50;;;;;;;19.44;53.94;101514.59;4992054;28;20061;-77